Brea, CA (92821)

6:16 AM PST on February 11, 2016 (GMT -0800)
KCABREA3 | | Change Station
CLOSE
Current Station
Personal Weather Station
Location: Brea, CA
Elevation: 550 ft
Nearby Weather Stations

Elev 550 ft 33.95 °N, 117.92 °W | Updated 225 days ago

Clear
Clear
63 °F
Feels Like 63 °F
N
1
Wind Variable Wind from NE
Gusts mph

Today
High -- | Low -- °F
--% Chance of Precip.
Yesterday
High -- | Low -- °F
Precip. -- in
Pressure 30.06 in
Visibility 10.0 miles
Clouds Clear
Dew Point 37 °F
Humidity 38%
Rainfall in
Snow Depth Not available.
6:40 AM 5:31 PM
Waxing Crescent, 12% visible
METAR KFUL 111353Z 00000KT 10SM CLR 11/03 A3006 RMK AO2 SLP179 T01060033
Pressure 30.06 in
Visibility 10.0 miles
Clouds Clear
Dew Point 37 °F
Humidity 38%
Rainfall in
Snow Depth Not available.
6:40 AM 5:31 PM
Waxing Crescent, 12% visible
METAR KFUL 111353Z 00000KT 10SM CLR 11/03 A3006 RMK AO2 SLP179 T01060033

10-Day Weather Forecast

Almanac

Astronomy

Feb. 11, 2016 Rise Set
Actual Time
Civil Twilight
Nautical Twilight
Astronomical Twilight
Moon
Length of Visible Light
Length of Day
Tomorrow will be .
, % of the Moon is Illuminated

Today's Extremes

State Highs State Lows

Community

WunderPhotos

Upload Photos

1,892,048 photos uploaded!

WunderBlog® & News

Nearby

Air Quality

  Air Quality AQ Index Pollutant
Not available.

Snow Depth

Station Depth Elevation

Earthquake Activity

City Distance Mag. Time & Date
Minimum magnitude displayed is 2.5.

Coastal Water Temperatures

Place Temperature

Stations

Nearby Weather Stations

Station Location Temp. Windchill Dew Point Humidity Wind Precip. Elev Updated Type
                   

Watches & Warnings

There are currently no watches in effect.